Ginys del Meteocat

Dades de l'estació automàtica Vallfogona de Balaguer

?
?
Resum diari 21:30 TU
Dades diàries de l'estació meteorològica
Temperatura mitjana 6.8 °C
Temperatura màxima 13.8 °C 14:29 TU
Temperatura mínima 1.4 °C 7:22 TU
Humitat relativa mitjana 89%
Precipitació acumulada 0.0 mm
Ratxa màxima del vent (2 m) 10.1 km/h - 10º 9:11 TU
Irradiació solar global 9.1 MJ/m2

El tram horari està expressat en Temps Universal (TU). Cal sumar una hora en horari d'hivern i dues en horari d'estiu per passar a l'hora oficial.

Vallfogona de Balaguer

Metadades estació meteorol´gica
Municipi Vallfogona de Balaguer
Comarca Noguera
Altitud 238 m
Data alta 17.10.1990
Estat actual Operativa
Dades de període
Període
TU
TM
°C
TX
°C
TN
°C
HRM
%
PPT
mm
VVM (2 m)
km/h
DVM (2 m)
graus
VVX (2 m)
km/h
RS
W/m2
00:00 - 00:30 7.3 7.6 6.9 85 0.0 1.8 79 7.9 0
00:30 - 01:00 6.4 6.8 6.1 92 0.0 0.7 345 2.5 0
01:00 - 01:30 6.0 6.1 5.9 95 0.0 0.4 210 2.9 0
01:30 - 02:00 5.8 5.9 5.6 95 0.0 1.4 345 3.6 0
02:00 - 02:30 5.8 5.9 5.6 95 0.0 1.1 354 3.2 0
02:30 - 03:00 5.4 6.1 4.4 94 0.0 1.8 204 4.3 0
03:00 - 03:30 4.5 4.7 3.9 98 0.0 2.5 1 5.8 0
03:30 - 04:00 3.6 3.9 3.1 98 0.0 0.7 6 4.0 0
04:00 - 04:30 3.0 3.3 2.8 99 0.0 2.9 8 5.8 0
04:30 - 05:00 2.9 3.2 2.7 99 0.0 2.5 5 5.0 0
05:00 - 05:30 2.9 3.2 2.5 99 0.0 1.1 8 4.0 0
05:30 - 06:00 2.8 3.2 2.4 100 0.0 1.8 8 3.6 0
06:00 - 06:30 2.3 2.5 2.0 100 0.0 0.4 7 1.8 0
06:30 - 07:00 2.1 2.3 1.7 100 0.0 0.4 129 2.9 0
07:00 - 07:30 1.7 1.9 1.4 100 0.0 0.4 124 2.9 4
07:30 - 08:00 2.0 2.3 1.8 100 0.0 0.7 103 4.3 31
08:00 - 08:30 2.6 3.2 2.0 100 0.0 3.2 11 7.2 77
08:30 - 09:00 3.9 4.7 3.3 99 0.0 5.0 6 8.6 158
09:00 - 09:30 5.5 6.3 4.8 93 0.0 4.7 11 10.1 246
09:30 - 10:00 6.9 7.6 6.3 87 0.0 2.5 339 7.6 300
10:00 - 10:30 8.9 9.3 7.8 80 0.0 2.9 163 6.8 360
10:30 - 11:00 9.3 10.3 8.7 78 0.0 1.4 227 4.7 396
11:00 - 11:30 10.1 10.6 9.6 76 0.0 1.8 6 5.4 445
11:30 - 12:00 10.8 11.6 10.2 71 0.0 1.4 1 4.7 354
12:00 - 12:30 10.9 11.8 10.2 70 0.0 1.8 349 5.8 440
12:30 - 13:00 12.2 12.9 11.7 62 0.0 2.2 283 5.4 515
13:00 - 13:30 12.9 13.3 12.6 61 0.0 2.5 245 7.9 439
13:30 - 14:00 13.0 13.3 12.5 62 0.0 2.2 243 7.2 363
14:00 - 14:30 13.2 13.8 12.9 63 0.0 3.2 233 7.9 358
14:30 - 15:00 13.1 13.7 12.9 63 0.0 4.0 214 8.6 276
15:00 - 15:30 12.7 13.1 12.0 66 0.0 4.0 215 9.4 187
15:30 - 16:00 11.4 11.9 11.0 72 0.0 1.8 210 4.7 61
16:00 - 16:30 10.5 11.0 10.0 78 0.0 1.8 201 5.8 48
16:30 - 17:00 9.5 10.0 8.7 86 0.0 1.1 214 5.0 13
17:00 - 17:30 8.0 8.7 7.5 93 0.0 0.0 211 1.4 0
17:30 - 18:00 7.2 7.6 6.7 96 0.0 0.0 0 0.0 0
18:00 - 18:30 6.2 6.7 5.8 98 0.0 0.0 211 0.7 0
18:30 - 19:00 5.7 6.0 5.3 99 0.0 1.1 5 4.3 0
19:00 - 19:30 5.4 5.5 5.2 99 0.0 1.4 4 3.6 0
19:30 - 20:00 4.8 5.3 4.5 99 0.0 3.2 353 6.8 0
20:00 - 20:30 5.4 5.6 5.1 99 0.0 5.0 8 9.0 0
20:30 - 21:00 5.8 6.2 5.3 98 0.0 2.9 28 9.4 0
21:00 - 21:30 5.3 5.5 5.2 98 0.0 0.7 353 3.2 0
21:30 - 22:00 5.3 5.6 5.2 99 0.0 2.2 358 4.3 0

Les dades en taronja només han passat un control de qualitat automàtic. Resta pendent la seva validació definitiva.